Flight Track Log - Related Links

Times and Time Zones

All times are in EDT time to prevent confusion due to time zone crossing. See the AAL1326 flight status page for this flight to view local times or setup timezone preferences in your user account.

Time Position Orientation Groundspeed Altitude Reporting Facility
EDT Latitude Longitude Course Direction KTS MPH feet Rate Location/Type
Tue 07:02:23 PM 41.9970 -87.8970 90° East 152 175 1,100  Level FlightAware ADS-B
Tue 07:02:33 PM 42.0010 -87.8900 52° Northeast 147 169 1,800 2,880 Climbing FlightAware ADS-B
Tue 07:02:48 PM 42.0040 -87.8780 71° East 161 185 2,300 1,467 Climbing FlightAware ADS-B
Tue 07:03:18 PM 42.0070 -87.8410 84° East 223 257 2,900 1,418 Climbing FlightAware ADS-B
Tue 07:03:43 PM 41.9990 -87.8030 106° East 259 298 3,600 2,509 Climbing FlightAware ADS-B
Tue 07:04:13 PM 41.9850 -87.7550 111° Southeast 276 318 5,200 2,800 Climbing FlightAware ADS-B
Tue 07:04:28 PM 41.9750 -87.7360 125° Southeast 276 318 5,700 1,600 Climbing FlightAware ADS-B
Tue 07:04:43 PM 41.9580 -87.7220 149° Southeast 273 314 6,000 720 Climbing FlightAware ADS-B
Tue 07:04:53 PM 41.9460 -87.7200 173° South 269 310 6,000  Level FlightAware ADS-B
Tue 07:05:23 PM 41.9090 -87.7210 181° South 261 300 6,000  Level FlightAware ADS-B
Tue 07:05:48 PM 41.8800 -87.7210 180° South 258 297 6,000  Level FlightAware ADS-B
Tue 07:06:23 PM 41.8370 -87.7220 181° South 257 296 6,000  Level FlightAware ADS-B
Tue 07:06:38 PM 41.8210 -87.7230 183° South 257 296 6,000  Level FlightAware ADS-B
Tue 07:07:03 PM 41.7910 -87.7240 181° South 256 295 6,000 1,200 Level FlightAware ADS-B
Tue 07:07:48 PM 41.7400 -87.7240 180° South 263 303 7,400 2,475 Climbing FlightAware ADS-B
Tue 07:08:23 PM 41.6950 -87.7240 180° South 279 321 9,300 3,075 Climbing FlightAware ADS-B
Tue 07:09:08 PM 41.6320 -87.7240 180° South 302 348 11,500 2,600 Climbing FlightAware ADS-B
Tue 07:09:53 PM 41.5670 -87.7240 180° South 344 396 13,200 2,753 Climbing FlightAware ADS-B
Tue 07:10:33 PM 41.5010 -87.7240 180° South 359 413 15,400 3,459 Climbing FlightAware ADS-B
Tue 07:11:18 PM 41.4230 -87.7250 181° South 367 422 18,100 3,459 Climbing FlightAware ADS-B
Tue 07:11:58 PM 41.3550 -87.7250 180° South 372 428 20,300 3,000 Climbing FlightAware ADS-B
Tue 07:12:38 PM 41.2840 -87.7260 181° South 385 443 22,100 2,480 Climbing FlightAware ADS-B
Tue 07:13:13 PM 41.2240 -87.7260 180° South 396 456 23,400 2,471 Climbing FlightAware ADS-B
Tue 07:14:03 PM 41.1260 -87.7150 175° South 410 472 25,600 2,400 Climbing FlightAware ADS-B
Tue 07:14:43 PM 41.0500 -87.7050 174° South 417 480 27,000 2,047 Climbing FlightAware ADS-B
Tue 07:15:28 PM 40.9670 -87.6780 166° South 438 504 28,500 1,333 Climbing FlightAware ADS-B
Tue 07:16:13 PM 40.8770 -87.6360 161° South 444 511 29,000 353 Climbing FlightAware ADS-B
Tue 07:16:53 PM 40.8000 -87.6000 161° South 442 509 29,000  Level FlightAware ADS-B
Tue 07:17:33 PM 40.7260 -87.5650 160° South 441 507 29,000 282 Level FlightAware ADS-B
Tue 07:18:18 PM 40.6410 -87.5250 160° South 448 516 29,400 1,129 Climbing FlightAware ADS-B
Tue 07:18:58 PM 40.5590 -87.4870 161° South 453 521 30,600 1,765 Climbing FlightAware ADS-B
Tue 07:19:43 PM 40.4690 -87.4450 160° South 460 529 31,900 1,976 Climbing FlightAware ADS-B
Tue 07:20:23 PM 40.3910 -87.4090 161° South 451 519 33,400 2,250 Climbing FlightAware ADS-B
Tue 07:21:03 PM 40.3110 -87.3760 163° South 437 503 34,900 1,906 Climbing FlightAware ADS-B
Tue 07:21:48 PM 40.2240 -87.3530 169° South 436 502 36,100 1,560 Climbing FlightAware ADS-B
Tue 07:22:43 PM 40.1140 -87.3240 169° South 433 498 37,500 1,453 Climbing FlightAware ADS-B
Tue 07:23:23 PM 40.0370 -87.3030 168° South 433 498 38,400 1,125 Climbing FlightAware ADS-B
Tue 07:24:03 PM 39.9650 -87.2670 159° South 437 503 39,000 480 Climbing FlightAware ADS-B
Tue 07:24:38 PM 39.8950 -87.2340 160° South 431 496 39,000 71 Level FlightAware ADS-B
Tue 07:25:28 PM 39.7970 -87.2030 166° South 433 498 39,100 533 Climbing FlightAware ADS-B
Tue 07:26:08 PM 39.7200 -87.1800 167° South 430 495 39,800 847 Climbing FlightAware ADS-B
Tue 07:26:53 PM 39.6320 -87.1520 166° South 436 502 40,300 667 Climbing FlightAware ADS-B
Tue 07:27:38 PM 39.5440 -87.1020 156° South 452 520 40,800 494 Climbing FlightAware ADS-B
Tue 07:28:18 PM 39.4750 -87.0510 150° Southeast 451 519 41,000 141 Climbing FlightAware ADS-B
Tue 07:29:03 PM 39.3910 -86.9920 152° Southeast 446 513 41,000  Level FlightAware ADS-B
Tue 07:29:43 PM 39.3190 -86.9440 153° Southeast 446 513 41,000  Level FlightAware ADS-B
Tue 07:30:23 PM 39.2450 -86.8940 152° Southeast 446 513 41,000  Level FlightAware ADS-B
Tue 07:31:08 PM 39.1650 -86.8400 152° Southeast 445 512 41,000  Level FlightAware ADS-B
Tue 07:31:48 PM 39.0910 -86.7910 153° Southeast 445 512 41,000  Level FlightAware ADS-B
Tue 07:32:33 PM 39.0090 -86.7350 152° Southeast 445 512 41,000  Level FlightAware ADS-B
Tue 07:33:13 PM 38.9360 -86.6860 152° Southeast 444 511 41,000  Level FlightAware ADS-B
Tue 07:33:53 PM 38.8620 -86.6370 153° Southeast 444 511 41,000  Level FlightAware ADS-B
Tue 07:34:38 PM 38.7830 -86.5830 152° Southeast 443 510 41,000  Level FlightAware ADS-B
Tue 07:35:18 PM 38.7100 -86.5350 153° Southeast 442 509 41,000  Level FlightAware ADS-B
Tue 07:35:58 PM 38.6340 -86.4840 152° Southeast 442 509 41,000  Level FlightAware ADS-B
Tue 07:36:43 PM 38.5540 -86.4310 153° Southeast 441 507 41,000  Level FlightAware ADS-B
Tue 07:37:23 PM 38.4830 -86.3840 153° Southeast 441 507 41,000  Level FlightAware ADS-B
Tue 07:38:08 PM 38.3980 -86.3280 153° Southeast 442 509 41,000  Level FlightAware ADS-B
Tue 07:38:48 PM 38.3260 -86.2810 153° Southeast 444 511 41,000  Level FlightAware ADS-B
Tue 07:39:33 PM 38.2450 -86.2270 152° Southeast 445 512 41,000  Level FlightAware ADS-B
Tue 07:40:13 PM 38.1730 -86.1800 153° Southeast 445 512 41,000  Level FlightAware ADS-B
Tue 07:40:53 PM 38.0990 -86.1320 153° Southeast 445 512 41,000  Level FlightAware ADS-B
Tue 07:41:38 PM 38.0140 -86.0760 153° Southeast 446 513 41,000  Level FlightAware ADS-B
Tue 07:42:18 PM 37.9420 -86.0280 152° Southeast 448 516 41,000  Level FlightAware ADS-B
Tue 07:43:03 PM 37.8600 -85.9760 153° Southeast 447 514 41,000  Level FlightAware ADS-B
Tue 07:43:17 PM 37.8304 -85.9566 153° Southeast 449 517 41,000  Level FlightAware ADS-B
Tue 07:44:05 PM 37.7416 -85.8992 153° Southeast 449 517 41,000  Level FlightAware ADS-B
Tue 07:44:42 PM 37.6724 -85.8547 153° Southeast 452 520 41,000  Level FlightAware ADS-B
Tue 07:45:15 PM 37.6108 -85.8150 153° Southeast 453 521 41,000  Level FlightAware ADS-B
Tue 07:45:48 PM 37.5520 -85.7770 153° Southeast 454 522 41,000  Level FlightAware ADS-B
Tue 07:45:57 PM 37.5317 -85.7641 153° Southeast 455 524 41,000  Level FlightAware ADS-B
Tue 07:46:28 PM 37.4800 -85.7310 153° Southeast 454 522 41,000  Level FlightAware ADS-B
Tue 07:46:47 PM 37.4381 -85.7040 153° Southeast 454 522 41,000  Level FlightAware ADS-B
Tue 07:47:17 PM 37.3820 -85.6680 153° Southeast 454 522 41,000  Level FlightAware ADS-B
Tue 07:47:48 PM 37.3240 -85.6309 153° Southeast 452 520 41,000  Level FlightAware ADS-B
Tue 07:48:24 PM 37.2572 -85.5884 153° Southeast 451 519 41,000  Level FlightAware ADS-B
Tue 07:49:18 PM 37.1620 -85.5280 153° Southeast 450 518 41,000  Level FlightAware ADS-B
Tue 07:49:34 PM 37.1273 -85.5058 153° Southeast 450 518 41,000  Level FlightAware ADS-B
Tue 07:50:05 PM 37.0705 -85.4698 153° Southeast 452 520 41,000  Level FlightAware ADS-B
Tue 07:50:35 PM 37.0133 -85.4334 153° Southeast 454 522 41,000  Level FlightAware ADS-B
Tue 07:51:42 PM 36.8864 -85.3542 153° Southeast 457 526 41,000  Level FlightAware ADS-B
Tue 07:52:24 PM 36.8024 -85.3225 163° South 451 519 41,000  Level FlightAware ADS-B
Tue 07:53:02 PM 36.7255 -85.3000 167° South 452 520 41,000  Level FlightAware ADS-B
Tue 07:53:32 PM 36.6638 -85.2822 167° South 454 522 41,000  Level FlightAware ADS-B
Tue 07:54:03 PM 36.6010 -85.2641 167° South 455 524 41,000  Level FlightAware ADS-B
Tue 07:54:55 PM 36.4952 -85.2339 167° South 456 525 41,000  Level FlightAware ADS-B
Tue 07:55:26 PM 36.4305 -85.2156 167° South 458 527 41,000  Level FlightAware ADS-B
Tue 07:55:58 PM 36.3654 -85.1968 167° South 455 524 41,000  Level FlightAware ADS-B
Tue 07:56:28 PM 36.3040 -85.1789 167° South 454 522 41,000  Level FlightAware ADS-B
Tue 07:56:59 PM 36.2398 -85.1604 167° South 456 525 41,000  Level FlightAware ADS-B
Tue 07:57:29 PM 36.1773 -85.1425 167° South 456 525 41,000  Level FlightAware ADS-B
Tue 07:58:00 PM 36.1138 -85.1243 167° South 455 524 41,000  Level FlightAware ADS-B
Tue 07:58:32 PM 36.0478 -85.1054 167° South 456 525 41,000  Level FlightAware ADS-B
Tue 07:59:04 PM 35.9834 -85.0871 167° South 455 524 41,000  Level FlightAware ADS-B
Tue 07:59:37 PM 35.9164 -85.0678 167° South 455 524 41,000  Level FlightAware ADS-B
Tue 08:00:07 PM 35.8543 -85.0500 167° South 455 524 41,000  Level FlightAware ADS-B
Tue 08:00:54 PM 35.7583 -85.0230 167° South 455 524 41,000  Level FlightAware ADS-B
Tue 08:01:27 PM 35.6903 -85.0037 167° South 455 524 41,000  Level FlightAware ADS-B
Tue 08:02:01 PM 35.6200 -84.9838 167° South 455 524 41,000  Level FlightAware ADS-B
Tue 08:02:32 PM 35.5577 -84.9660 167° South 456 525 41,000  Level FlightAware ADS-B
Tue 08:03:03 PM 35.4922 -84.9476 167° South 456 525 41,000  Level FlightAware ADS-B
Tue 08:03:34 PM 35.4304 -84.9303 167° South 454 522 41,000  Level FlightAware ADS-B
Tue 08:04:04 PM 35.3685 -84.9130 167° South 454 522 41,000  Level FlightAware ADS-B
Tue 08:04:34 PM 35.3058 -84.8955 167° South 452 520 41,000  Level FlightAware ADS-B
Tue 08:05:04 PM 35.2444 -84.8783 167° South 452 520 41,000  Level FlightAware ADS-B
Tue 08:05:35 PM 35.1821 -84.8609 167° South 451 519 41,000  Level FlightAware ADS-B
Tue 08:06:05 PM 35.1209 -84.8437 167° South 450 518 41,000  Level FlightAware ADS-B
Tue 08:06:35 PM 35.0597 -84.8266 167° South 449 517 41,000  Level FlightAware ADS-B
Tue 08:07:06 PM 34.9974 -84.8092 167° South 449 517 41,000  Level FlightAware ADS-B
Tue 08:07:37 PM 34.9348 -84.7919 167° South 447 514 41,000  Level FlightAware ADS-B
Tue 08:08:08 PM 34.8736 -84.7750 167° South 445 512 41,000  Level FlightAware ADS-B
Tue 08:08:39 PM 34.8103 -84.7574 167° South 445 512 41,000  Level FlightAware ADS-B
Tue 08:09:33 PM 34.7230 -84.7330 167° South 446 513 41,000  Level FlightAware ADS-B
Tue 08:10:18 PM 34.6160 -84.7040 167° South 449 517 41,000  Level FlightAware ADS-B
Tue 08:10:58 PM 34.5350 -84.6820 167° South 449 517 41,000  Level FlightAware ADS-B
Tue 08:11:43 PM 34.4430 -84.6560 167° South 443 510 41,000  Level FlightAware ADS-B
Tue 08:12:07 PM 34.3898 -84.6418 168° South 452 520 41,000  Level FlightAware ADS-B
Tue 08:12:58 PM 34.2853 -84.6132 167° South 454 522 41,000  Level FlightAware ADS-B
Tue 08:13:48 PM 34.1900 -84.5870 167° South 448 516 41,000  Level FlightAware ADS-B
Tue 08:14:28 PM 34.1060 -84.5640 167° South 459 528 41,000  Level FlightAware ADS-B
Tue 08:15:13 PM 34.0140 -84.5390 167° South 460 529 41,000  Level FlightAware ADS-B
Tue 08:15:53 PM 33.9290 -84.5160 167° South 459 528 41,000  Level FlightAware ADS-B
Tue 08:16:38 PM 33.8380 -84.4910 167° South 459 528 41,000  Level FlightAware ADS-B
Tue 08:17:18 PM 33.7580 -84.4700 168° South 449 517 41,000  Level FlightAware ADS-B
Tue 08:17:58 PM 33.6730 -84.4470 167° South 448 516 41,000  Level FlightAware ADS-B
Tue 08:18:43 PM 33.5770 -84.4140 164° South 461 531 41,000  Level FlightAware ADS-B
Tue 08:19:23 PM 33.4990 -84.3810 161° South 465 535 41,000  Level FlightAware ADS-B
Tue 08:20:03 PM 33.4140 -84.3450 161° South 468 539 41,000  Level FlightAware ADS-B
Tue 08:20:48 PM 33.3200 -84.3060 161° South 468 539 41,000  Level FlightAware ADS-B
Tue 08:21:28 PM 33.2420 -84.2730 161° South 468 539 41,000  Level FlightAware ADS-B
Tue 08:22:08 PM 33.1590 -84.2390 161° South 470 541 41,000  Level FlightAware ADS-B
Tue 08:22:53 PM 33.0660 -84.2010 161° South 472 543 41,000  Level FlightAware ADS-B
Tue 08:23:38 PM 32.9740 -84.1630 161° South 474 545 41,000  Level FlightAware ADS-B
Tue 08:24:18 PM 32.8870 -84.1270 161° South 475 547 41,000  Level FlightAware ADS-B
Tue 08:25:13 PM 32.7810 -84.0820 160° South 476 548 41,000  Level FlightAware ADS-B
Tue 08:25:53 PM 32.7040 -84.0500 161° South 476 548 41,000  Level FlightAware ADS-B
Tue 08:26:33 PM 32.6330 -84.0200 160° South 476 548 41,000  Level FlightAware ADS-B
Tue 08:27:13 PM 32.5630 -83.9900 160° South 476 548 41,000  Level FlightAware ADS-B
Tue 08:28:03 PM 32.4750 -83.9520 160° South 476 548 41,000  Level FlightAware ADS-B
Tue 08:28:43 PM 32.4050 -83.9210 159° South 476 548 41,000  Level FlightAware ADS-B
Tue 08:29:23 PM 32.3340 -83.8910 160° South 476 548 41,000  Level FlightAware ADS-B
Tue 08:30:03 PM 32.2640 -83.8610 160° South 476 548 41,000  Level FlightAware ADS-B
Tue 08:30:43 PM 32.1940 -83.8300 159° South 476 548 41,000  Level FlightAware ADS-B
Tue 08:31:33 PM 32.1060 -83.7930 160° South 476 548 41,000  Level FlightAware ADS-B
Tue 08:32:13 PM 32.0350 -83.7620 160° South 476 548 41,000  Level FlightAware ADS-B
Tue 08:32:53 PM 31.9650 -83.7320 160° South 476 548 41,000  Level FlightAware ADS-B
Tue 08:33:33 PM 31.8950 -83.7020 160° South 476 548 41,000  Level FlightAware ADS-B
Tue 08:34:13 PM 31.8240 -83.6720 160° South 476 548 41,000  Level FlightAware ADS-B
Tue 08:35:03 PM 31.7360 -83.6340 160° South 476 548 41,000  Level FlightAware ADS-B
Tue 08:35:27 PM 31.5111 -83.6042 160° South 467 537 41,000  Level Jacksonville Center
Tue 08:36:27 PM 31.3858 -83.5642 165° South 472 543 41,000  Level Jacksonville Center
Tue 08:37:27 PM 31.2650 -83.5269 165° South 467 537 41,000  Level Jacksonville Center
Tue 08:38:27 PM 31.1419 -83.4872 165° South 467 537 41,000  Level Jacksonville Center
Tue 08:39:27 PM 31.0169 -83.4478 165° South 467 537 41,000  Level Jacksonville Center
Tue 08:40:27 PM 30.8919 -83.4083 165° South 467 537 41,000  Level Jacksonville Center
Tue 08:46:13 PM 30.1910 -83.1880 165° South 461 531 41,000  Level FlightAware ADS-B
Tue 08:46:53 PM 30.1050 -83.1610 165° South 461 531 41,000  Level FlightAware ADS-B
Tue 08:47:48 PM 30.0980 -83.1590 166° South 462 532 41,000  Level FlightAware ADS-B
Tue 08:48:33 PM 30.0980 -83.1590 166° South 463 533 41,000  Level FlightAware ADS-B
Tue 08:49:13 PM 30.0280 -83.1360 164° South 463 533 41,000  Level FlightAware ADS-B
Tue 08:49:53 PM 29.9580 -83.1130 164° South 463 533 41,000  Level FlightAware ADS-B
Tue 08:50:43 PM 29.8700 -83.0840 164° South 463 533 41,000  Level FlightAware ADS-B
Tue 08:51:23 PM 29.5380 -82.9880 166° South 451 519 41,000  Level FlightAware ADS-B
Tue 08:52:03 PM 29.4570 -82.9630 165° South 451 519 41,000  Level FlightAware ADS-B
Tue 08:52:48 PM 29.3630 -82.9340 165° South 452 520 41,000  Level FlightAware ADS-B
Tue 08:53:28 PM 29.2820 -82.9100 166° South 452 520 41,000  Level FlightAware ADS-B
Tue 08:54:13 PM 29.1870 -82.8810 165° South 454 522 41,000  Level FlightAware ADS-B
Tue 08:54:53 PM 29.1050 -82.8560 165° South 463 533 41,000  Level FlightAware ADS-B
Tue 08:55:48 PM 28.9890 -82.8210 165° South 465 535 41,000  Level FlightAware ADS-B
Tue 08:57:08 PM 28.8320 -82.7730 165° South 466 536 41,000  Level FlightAware ADS-B
Tue 08:57:53 PM 28.7250 -82.7410 165° South 468 539 41,000  Level FlightAware ADS-B
Tue 08:58:38 PM 28.6340 -82.7140 165° South 468 539 41,000  Level FlightAware ADS-B
Tue 08:59:18 PM 28.5490 -82.6880 165° South 468 539 41,000  Level FlightAware ADS-B
Tue 09:00:03 PM 28.4560 -82.6600 165° South 466 536 41,000  Level FlightAware ADS-B
Tue 09:00:43 PM 28.3700 -82.6350 166° South 464 534 41,000  Level FlightAware ADS-B
Tue 09:01:23 PM 28.2910 -82.6110 165° South 462 532 41,000  Level FlightAware ADS-B
Tue 09:02:03 PM 28.2050 -82.5860 166° South 461 531 41,000  Level FlightAware ADS-B
Tue 09:02:48 PM 28.1170 -82.5590 165° South 459 528 41,000  Level FlightAware ADS-B
Tue 09:03:33 PM 28.0230 -82.5310 165° South 457 526 41,000  Level FlightAware ADS-B
Tue 09:04:13 PM 27.9400 -82.5050 165° South 462 532 41,000 -225 Level FlightAware ADS-B
Tue 09:04:53 PM 27.8570 -82.4750 162° South 465 535 40,700 -706 Descending FlightAware ADS-B
Tue 09:05:38 PM 27.7650 -82.4410 162° South 465 535 40,000 -988 Descending FlightAware ADS-B
Tue 09:06:18 PM 27.6850 -82.4120 162° South 460 529 39,300 -988 Descending FlightAware ADS-B
Tue 09:07:03 PM 27.5920 -82.3770 162° South 461 531 38,600 -918 Descending FlightAware ADS-B
Tue 09:07:43 PM 27.5110 -82.3470 162° South 463 533 38,000 -975 Descending FlightAware ADS-B
Tue 09:08:23 PM 27.4320 -82.3020 153° Southeast 479 551 37,300 -988 Descending FlightAware ADS-B
Tue 09:09:08 PM 27.3530 -82.2350 143° Southeast 485 558 36,600 -918 Descending FlightAware ADS-B
Tue 09:09:48 PM 27.2820 -82.1740 143° Southeast 484 557 36,000 -918 Descending FlightAware ADS-B
Tue 09:10:33 PM 27.2000 -82.1040 143° Southeast 481 554 35,300 -1,412 Descending FlightAware ADS-B
Tue 09:11:13 PM 27.1320 -82.0460 143° Southeast 481 554 34,000 -2,250 Descending FlightAware ADS-B
Tue 09:11:53 PM 27.0600 -81.9840 143° Southeast 480 552 32,300 -2,529 Descending FlightAware ADS-B
Tue 09:12:55 PM 26.9490 -81.8900 143° Southeast 466 536 29,700 -2,621 Descending FlightAware ADS-B
Tue 09:13:36 PM 26.8800 -81.8340 144° Southeast 448 516 27,800 1,443 Descending FlightAware ADS-B
Tue 09:14:14 PM 26.8840 -81.8310 34° Northeast 481 554 31,600 -3,341 Climbing FlightAware ADS-B
Tue 09:15:04 PM 26.7380 -81.7120 144° Southeast 441 507 22,900 -6,200 Descending FlightAware ADS-B
Tue 09:15:44 PM 26.6770 -81.6600 143° Southeast 438 504 22,300 -450 Descending FlightAware ADS-B
Tue 09:16:24 PM 26.6230 -81.6130 142° Southeast 438 504 22,300  Level FlightAware ADS-B
Tue 09:17:04 PM 26.5690 -81.5650 142° Southeast 438 504 22,300  Level FlightAware ADS-B
Tue 09:17:44 PM 26.5140 -81.5180 143° Southeast 438 504 22,300  Level FlightAware ADS-B
Tue 09:18:34 PM 26.4470 -81.4590 142° Southeast 438 504 22,300  Level FlightAware ADS-B
Tue 09:19:14 PM 26.3920 -81.4110 142° Southeast 438 504 22,300 -3,264 Level FlightAware ADS-B
Tue 09:22:44 PM 26.1990 -81.0890 124° Southeast 275 316 8,700 -3,450 Descending FlightAware ADS-B
Tue 09:23:14 PM 26.1750 -81.0580 131° Southeast 275 316 8,500 -300 Descending FlightAware ADS-B
Tue 09:23:24 PM 26.1680 -81.0480 128° Southeast 275 316 8,500  Level FlightAware ADS-B
Tue 09:23:54 PM 26.1470 -81.0210 131° Southeast 275 316 8,500  Level FlightAware ADS-B
Tue 09:24:24 PM 26.1250 -80.9940 132° Southeast 275 316 8,500 -1,067 Level FlightAware ADS-B
Tue 09:24:39 PM 26.1070 -80.9660 126° Southeast 272 313 7,700 -2,400 Descending FlightAware ADS-B
Tue 09:24:59 PM 26.1020 -80.9370 101° East 275 316 7,100 -1,636 Descending FlightAware ADS-B
Tue 09:25:34 PM 26.1000 -80.8850 92° East 269 310 6,200 -1,114 Descending FlightAware ADS-B
Tue 09:26:09 PM 26.0970 -80.8410 94° East 273 314 5,800 -400 Descending FlightAware ADS-B
Tue 09:26:34 PM 26.0960 -80.8070 92° East 273 314 5,800  Level FlightAware ADS-B
Tue 09:29:29 PM 26.0810 -80.5720 94° East 224 258 5,800  Level FlightAware ADS-B
Tue 09:29:59 PM 26.0800 -80.5380 92° East 197 227 5,800 -424 Level FlightAware ADS-B
Tue 09:30:54 PM 26.0790 -80.4840 91° East 193 222 5,200 -918 Descending FlightAware ADS-B
Tue 09:31:24 PM 26.0780 -80.4530 92° East 188 216 4,500 -857 Descending FlightAware ADS-B
Tue 09:32:04 PM 26.0780 -80.4160 90° East 179 206 4,200 -600 Descending FlightAware ADS-B
Tue 09:32:34 PM 26.0780 -80.3890 90° East 175 201 3,800 -1,029 Descending FlightAware ADS-B
Tue 09:33:14 PM 26.0780 -80.3530 90° East 178 205 3,000 -1,015 Descending FlightAware ADS-B
Tue 09:33:39 PM 26.0780 -80.3300 90° East 172 198 2,700 -840 Descending FlightAware ADS-B
Tue 09:34:04 PM 26.0780 -80.3080 90° East 162 186 2,300 -933 Descending FlightAware ADS-B
Tue 09:34:24 PM 26.0780 -80.2920 90° East 148 170 2,000 -800 Descending FlightAware ADS-B
Tue 09:34:49 PM 26.0780 -80.2770 90° East 141 162 1,700 -771 Descending FlightAware ADS-B
Tue 09:35:34 PM 26.0770 -80.2420 92° East 140 161 1,100 -720 Descending FlightAware ADS-B
Tue 09:36:04 PM 26.0770 -80.2210 90° East 131 151 800 -655 Descending FlightAware ADS-B
Tue 09:36:29 PM 26.0770 -80.2040 90° East 128 147 500 -655 Descending FlightAware ADS-B
Tue 09:36:59 PM 26.0770 -80.1840 90° East 127 146 200 -327 Descending FlightAware ADS-B
Tue 09:37:24 PM 26.0770 -80.1690 90° East 127 146 200  Level FlightAware ADS-B

Login

Don't have an account? Register now (free) for customized features, flight alerts, and more!